Time;durP1;ratioP1;P1;durP2;ratioP2;P2;SDS_P1;SDS_P2;PMS_P1;PMS_P2;Temp;Humidity;BMP_temperature;BMP_pressure;BME280_temperature;BME280_humidity;BME280_pressure;Samples;Min_cycle;Max_cycle;Signal;HPM_P1;HPM_P2
2022/03/19 00:01:49;;;;;;;15.82;6.03;;;;;;;6.91;100.00;104036.38;5021312;28;20036;-79
2022/03/19 00:04:14;;;;;;;13.65;6.93;;;;;;;6.71;100.00;104036.63;5019439;28;20403;-79
2022/03/19 00:06:40;;;;;;;11.27;6.47;;;;;;;6.74;100.00;104040.19;5027454;28;20026;-78
2022/03/19 00:09:07;;;;;;;23.55;7.65;;;;;;;6.66;100.00;104036.66;5027445;28;20037;-79
2022/03/19 00:11:34;;;;;;;15.25;6.80;;;;;;;6.57;100.00;104032.19;5020596;28;20092;-79
2022/03/19 00:13:59;;;;;;;16.83;7.13;;;;;;;6.49;100.00;104033.22;5067547;28;20034;-78
2022/03/19 00:16:25;;;;;;;13.57;7.80;;;;;;;6.44;100.00;104034.19;5034591;28;20064;-79
2022/03/19 00:18:50;;;;;;;15.65;6.93;;;;;;;6.33;100.00;104035.16;5011562;28;20036;-78
2022/03/19 00:21:16;;;;;;;18.23;6.78;;;;;;;6.33;100.00;104046.06;5018706;28;20083;-78
2022/03/19 00:23:42;;;;;;;16.65;6.80;;;;;;;6.26;100.00;104037.06;5035343;28;20034;-78
2022/03/19 00:26:08;;;;;;;17.13;7.05;;;;;;;6.22;100.00;104030.75;5067320;28;20722;-79
2022/03/19 00:28:36;;;;;;;14.43;7.38;;;;;;;6.18;100.00;104036.22;5015804;28;20045;-78
2022/03/19 00:31:02;;;;;;;12.80;6.68;;;;;;;6.10;100.00;104032.66;5032985;28;20029;-79
2022/03/19 00:33:28;;;;;;;18.67;7.95;;;;;;;6.05;100.00;104027.25;5031932;28;20029;-79
2022/03/19 00:35:54;;;;;;;14.40;7.35;;;;;;;6.02;100.00;104033.66;5028840;28;20397;-79
2022/03/19 00:38:19;;;;;;;16.02;7.32;;;;;;;6.00;100.00;104032.78;5018860;28;20435;-79
2022/03/19 00:40:46;;;;;;;15.98;7.60;;;;;;;5.85;100.00;104019.25;5035474;28;20029;-79
2022/03/19 00:43:11;;;;;;;17.45;8.15;;;;;;;5.83;100.00;104026.53;5018672;28;20117;-79
2022/03/19 00:45:37;;;;;;;16.60;8.10;;;;;;;5.74;100.00;104021.16;5044536;28;20050;-80
2022/03/19 00:48:02;;;;;;;18.85;8.05;;;;;;;5.70;100.00;104020.28;5032546;28;20033;-80
2022/03/19 00:50:27;;;;;;;15.48;6.95;;;;;;;5.65;100.00;104024.84;5034612;28;20025;-79
2022/03/19 00:52:53;;;;;;;16.52;7.30;;;;;;;5.71;100.00;104024.81;5035293;28;20037;-80
2022/03/19 00:55:19;;;;;;;16.33;8.63;;;;;;;5.66;100.00;104027.56;5034661;28;20064;-78
2022/03/19 00:57:46;;;;;;;22.25;8.88;;;;;;;5.74;100.00;104023.84;5025665;28;20033;-79
2022/03/19 01:00:15;;;;;;;19.77;8.73;;;;;;;5.69;100.00;104019.38;5034132;28;20095;-79
2022/03/19 01:02:41;;;;;;;27.58;8.35;;;;;;;5.59;100.00;104016.72;5020715;28;20068;-79
2022/03/19 01:05:09;;;;;;;20.65;7.97;;;;;;;5.67;100.00;104017.56;5018724;28;20036;-79
2022/03/19 01:07:45;;;;;;;16.77;7.68;;;;;;;5.66;100.00;104007.63;5014546;28;20069;-78
2022/03/19 01:10:13;;;;;;;19.80;8.10;;;;;;;5.63;100.00;104007.66;5034444;28;20029;-79
2022/03/19 01:12:39;;;;;;;17.02;8.85;;;;;;;5.63;100.00;104007.66;5017272;28;20040;-79
2022/03/19 01:15:06;;;;;;;17.33;8.77;;;;;;;5.65;100.00;104003.09;5032861;28;20336;-78
2022/03/19 01:17:31;;;;;;;22.30;9.05;;;;;;;5.68;100.00;104003.97;5036608;28;20056;-78
2022/03/19 01:19:59;;;;;;;16.73;8.25;;;;;;;5.63;100.00;104004.94;5034724;28;20048;-80
2022/03/19 01:22:26;;;;;;;12.23;8.10;;;;;;;5.58;100.00;104013.13;5019185;28;20163;-78
2022/03/19 01:24:52;;;;;;;24.88;8.50;;;;;;;5.51;100.00;104008.66;5036278;28;20034;-79
2022/03/19 01:27:17;;;;;;;18.48;8.88;;;;;;;5.39;100.00;103998.72;5020716;28;20025;-78
2022/03/19 01:29:43;;;;;;;17.15;8.35;;;;;;;5.32;100.00;104007.84;5031199;28;20403;-79
2022/03/19 01:32:09;;;;;;;15.70;8.82;;;;;;;5.23;100.00;104011.53;5006053;28;20135;-79
2022/03/19 01:34:34;;;;;;;15.75;9.52;;;;;;;5.26;100.00;104006.09;5041134;28;20115;-79
2022/03/19 01:37:00;;;;;;;21.50;10.18;;;;;;;5.26;100.00;104003.38;5035559;28;20039;-80
2022/03/19 01:39:26;;;;;;;21.85;8.90;;;;;;;5.27;100.00;103999.72;5036967;28;20034;-79
2022/03/19 01:41:51;;;;;;;21.08;9.93;;;;;;;5.29;100.00;104003.31;5028125;28;20044;-80
2022/03/19 01:44:21;;;;;;;30.45;10.48;;;;;;;5.34;100.00;104006.00;5020784;28;20037;-79
2022/03/19 01:46:54;;;;;;;15.77;10.80;;;;;;;5.36;100.00;103989.72;5035669;28;20085;-79
2022/03/19 01:49:20;;;;;;;20.80;10.15;;;;;;;5.45;100.00;103995.09;5022663;28;20049;-78
2022/03/19 01:51:45;;;;;;;21.85;9.73;;;;;;;5.45;100.00;103993.25;5038959;28;20073;-80
2022/03/19 01:54:11;;;;;;;18.50;10.82;;;;;;;5.48;100.00;103990.53;5021982;28;20081;-79
2022/03/19 01:56:37;;;;;;;25.27;10.57;;;;;;;5.49;100.00;103989.63;5041658;28;20036;-78
2022/03/19 01:59:04;;;;;;;26.08;10.93;;;;;;;5.49;100.00;103988.72;5042112;28;20034;-79
2022/03/19 02:01:30;;;;;;;23.27;10.27;;;;;;;5.48;100.00;103993.25;5036669;28;20052;-79
2022/03/19 02:03:57;;;;;;;24.50;11.15;;;;;;;5.47;100.00;103980.56;5029380;28;20053;-79
2022/03/19 02:06:25;;;;;;;19.50;10.15;;;;;;;5.53;100.00;103979.63;5035882;28;20155;-78
2022/03/19 02:08:51;;;;;;;25.40;10.55;;;;;;;5.56;100.00;103971.47;5019689;28;20499;-78
2022/03/19 02:11:17;;;;;;;27.13;11.00;;;;;;;5.55;100.00;103968.75;5031470;28;20044;-78
2022/03/19 02:13:42;;;;;;;21.60;10.82;;;;;;;5.55;100.00;103969.66;5036304;28;20037;-78
2022/03/19 02:16:09;;;;;;;24.27;11.63;;;;;;;5.65;100.00;103970.47;5032763;28;20030;-78
2022/03/19 02:18:34;;;;;;;23.98;11.80;;;;;;;5.51;100.00;103959.72;5037796;28;20049;-79
2022/03/19 02:21:01;;;;;;;22.55;11.95;;;;;;;5.55;100.00;103961.50;5044966;28;20033;-79
2022/03/19 02:26:12;;;;;;;22.38;11.00;;;;;;;5.51;100.00;103951.56;5035882;28;20084;-79
2022/03/19 02:28:38;;;;;;;18.88;10.52;;;;;;;5.46;100.00;103954.31;5016741;28;20485;-78
2022/03/19 02:31:04;;;;;;;25.83;11.95;;;;;;;5.52;100.00;103953.34;5032989;28;20037;-79
2022/03/19 02:33:30;;;;;;;28.80;11.40;;;;;;;5.45;100.00;103943.47;5036110;28;20449;-79
2022/03/19 02:35:55;;;;;;;17.63;10.77;;;;;;;5.56;100.00;103936.13;5033130;28;20040;-79
2022/03/19 02:38:21;;;;;;;28.27;12.90;;;;;;;5.43;100.00;103945.28;5034797;28;20041;-79
2022/03/19 02:40:46;;;;;;;25.80;13.18;;;;;;;5.33;100.00;103941.75;5034791;28;20052;-79
2022/03/19 02:43:11;;;;;;;30.48;12.70;;;;;;;5.28;100.00;103940.84;5044874;28;20029;-79
2022/03/19 02:45:37;;;;;;;32.03;12.48;;;;;;;5.33;100.00;103939.91;5045493;28;20033;-78
2022/03/19 02:48:02;;;;;;;28.73;12.48;;;;;;;5.37;100.00;103929.94;5061139;28;20037;-79
2022/03/19 02:50:33;;;;;;;22.35;12.32;;;;;;;5.36;100.00;103935.38;5027121;28;20033;-80
2022/03/19 02:53:02;;;;;;;31.17;12.90;;;;;;;5.40;100.00;103934.44;5035459;28;20114;-79
2022/03/19 02:55:33;;;;;;;32.30;12.73;;;;;;;5.44;100.00;103933.50;5018613;28;20050;-79
2022/03/19 02:58:00;;;;;;;26.20;12.68;;;;;;;5.34;100.00;103927.22;5064029;28;20491;-77
2022/03/19 03:00:25;;;;;;;26.88;12.80;;;;;;;5.34;100.00;103930.88;5044127;28;20059;-79
2022/03/19 03:02:51;;;;;;;24.83;13.25;;;;;;;5.31;100.00;103928.16;5036997;28;20033;-79
2022/03/19 03:05:16;;;;;;;22.20;12.60;;;;;;;5.34;100.00;103940.81;5035704;28;20037;-79
2022/03/19 03:07:42;;;;;;;30.10;13.73;;;;;;;5.24;100.00;103936.38;4994579;28;20030;-80
2022/03/19 03:10:08;;;;;;;26.58;12.55;;;;;;;5.16;100.00;103930.97;5038327;28;20068;-79
2022/03/19 03:12:35;;;;;;;26.67;13.73;;;;;;;5.11;100.00;103935.53;5038647;28;20025;-79
2022/03/19 03:15:00;;;;;;;23.70;13.68;;;;;;;5.23;100.00;103935.47;5036845;28;20076;-80
2022/03/19 03:17:27;;;;;;;27.60;14.52;;;;;;;5.22;100.00;103925.50;5035440;28;20060;-79
2022/03/19 03:19:54;;;;;;;29.35;13.95;;;;;;;5.33;100.00;103930.88;5030282;28;20380;-79
2022/03/19 03:22:20;;;;;;;27.15;14.48;;;;;;;5.16;100.00;103933.69;5048637;28;20435;-79
2022/03/19 03:24:45;;;;;;;27.55;15.13;;;;;;;5.11;100.00;103932.81;5037162;28;20029;-79
2022/03/19 03:27:11;;;;;;;33.10;15.98;;;;;;;5.08;100.00;103935.56;5041069;28;20086;-79
2022/03/19 03:29:36;;;;;;;29.25;15.05;;;;;;;5.03;100.00;103938.28;5034870;28;20046;-79
2022/03/19 03:32:02;;;;;;;28.55;15.13;;;;;;;5.08;100.00;103931.03;5036821;28;20064;-79
2022/03/19 03:34:27;;;;;;;32.83;14.98;;;;;;;5.05;100.00;103936.50;5020639;28;20053;-78
2022/03/19 03:36:53;;;;;;;33.33;16.58;;;;;;;4.95;100.00;103926.56;5028223;28;20040;-78
2022/03/19 03:39:20;;;;;;;29.40;14.57;;;;;;;4.93;100.00;103934.72;5034154;28;20052;-78
2022/03/19 03:41:46;;;;;;;28.98;14.85;;;;;;;5.01;100.00;103933.78;5050255;28;20372;-78
2022/03/19 03:44:11;;;;;;;39.72;16.13;;;;;;;4.90;100.00;103934.78;5031707;28;20037;-79
2022/03/19 03:46:37;;;;;;;29.08;15.75;;;;;;;4.83;100.00;103919.41;5040024;28;20135;-79
2022/03/19 03:49:02;;;;;;;24.70;15.93;;;;;;;4.81;100.00;103929.38;5032716;28;20568;-79
2022/03/19 03:51:28;;;;;;;33.88;16.00;;;;;;;4.81;100.00;103923.06;5034362;28;20167;-79
2022/03/19 03:53:53;;;;;;;41.50;16.70;;;;;;;4.77;100.00;103924.84;5036890;28;20057;-79
2022/03/19 03:56:19;;;;;;;32.92;16.00;;;;;;;4.76;100.00;103923.97;5014136;28;20033;-79
2022/03/19 03:58:45;;;;;;;34.90;16.70;;;;;;;4.72;100.00;103923.97;5034931;28;20041;-80
2022/03/19 04:01:11;;;;;;;30.25;16.15;;;;;;;4.66;100.00;103921.31;5028922;28;20041;-80
2022/03/19 04:03:37;;;;;;;33.65;15.85;;;;;;;4.68;100.00;103923.09;5041478;28;20042;-79
2022/03/19 04:06:02;;;;;;;34.55;17.20;;;;;;;4.64;100.00;103912.25;5035865;28;20061;-79
2022/03/19 04:08:28;;;;;;;33.85;16.85;;;;;;;4.62;100.00;103911.38;5027786;28;20060;-79
2022/03/19 04:10:53;;;;;;;35.03;16.42;;;;;;;4.58;100.00;103910.50;5012405;28;20064;-80
2022/03/19 04:13:19;;;;;;;36.53;16.88;;;;;;;4.53;100.00;103913.22;5037643;28;20057;-80
2022/03/19 04:15:45;;;;;;;34.03;16.63;;;;;;;4.55;100.00;103919.53;5035073;28;20037;-80
2022/03/19 04:18:13;;;;;;;34.03;16.85;;;;;;;4.55;100.00;103921.34;5038537;28;20095;-80
2022/03/19 04:20:39;;;;;;;28.73;15.93;;;;;;;4.46;100.00;103910.53;5034776;28;20554;-78
2022/03/19 04:23:04;;;;;;;33.65;16.67;;;;;;;4.40;100.00;103908.75;5028636;28;20041;-80
2022/03/19 04:25:30;;;;;;;35.08;16.25;;;;;;;4.42;100.00;103907.81;5017129;28;20464;-80
2022/03/19 04:27:57;;;;;;;36.75;16.00;;;;;;;4.39;100.00;103902.44;5041782;28;20388;-79
2022/03/19 04:30:24;;;;;;;35.95;16.20;;;;;;;4.37;100.00;103908.75;5028104;28;20050;-79
2022/03/19 04:32:58;;;;;;;33.03;16.15;;;;;;;4.33;100.00;103913.31;5033922;28;20045;-79
2022/03/19 04:38:12;;;;;;;32.33;16.27;;;;;;;4.31;100.00;103907.00;5026933;28;20057;-78
2022/03/19 04:40:39;;;;;;;29.95;15.90;;;;;;;4.29;100.00;103913.31;5023222;28;20396;-79
2022/03/19 04:43:07;;;;;;;47.58;17.33;;;;;;;4.35;100.00;103910.59;5031161;28;20097;-79
2022/03/19 04:45:34;;;;;;;38.95;16.30;;;;;;;4.32;100.00;103903.34;5033662;28;20053;-79
2022/03/19 04:47:59;;;;;;;35.97;16.45;;;;;;;4.32;100.00;103900.63;5039396;28;20030;-80
2022/03/19 04:50:26;;;;;;;33.63;16.05;;;;;;;4.28;100.00;103898.84;5016924;28;20056;-80
2022/03/19 04:52:52;;;;;;;32.90;16.15;;;;;;;4.30;100.00;103902.47;5034032;28;20098;-79
2022/03/19 04:55:17;;;;;;;35.55;15.80;;;;;;;4.29;100.00;103897.94;5010740;28;20025;-79
2022/03/19 04:57:43;;;;;;;40.95;16.88;;;;;;;4.31;100.00;103895.22;5031077;28;20172;-79
2022/03/19 05:00:11;;;;;;;31.98;15.52;;;;;;;4.31;100.00;103900.63;5030275;28;20152;-79
2022/03/19 05:02:38;;;;;;;33.03;16.95;;;;;;;4.33;100.00;103899.75;5033341;28;20086;-79
2022/03/19 05:05:05;;;;;;;34.13;17.05;;;;;;;4.37;100.00;103903.34;5034576;28;20377;-79
2022/03/19 05:07:35;;;;;;;34.72;17.02;;;;;;;4.38;100.00;103899.72;5035418;28;20025;-79
2022/03/19 05:12:51;;;;;;;32.50;16.65;;;;;;;4.38;100.00;103905.16;5035827;28;20124;-79
2022/03/19 05:15:17;;;;;;;35.95;17.05;;;;;;;4.37;100.00;103914.19;5022031;28;20057;-80
2022/03/19 05:17:45;;;;;;;31.52;17.98;;;;;;;4.37;100.00;103916.91;5033182;28;20037;-79
2022/03/19 05:20:12;;;;;;;38.67;17.88;;;;;;;4.38;100.00;103910.56;5037835;28;20029;-79
2022/03/19 05:22:37;;;;;;;35.58;17.38;;;;;;;4.33;100.00;103915.09;5037708;28;20036;-79
2022/03/19 05:25:04;;;;;;;36.75;16.48;;;;;;;4.40;100.00;103909.66;5037757;28;20038;-79
2022/03/19 05:27:29;;;;;;;34.03;17.00;;;;;;;4.39;100.00;103912.38;5040400;28;20033;-79
2022/03/19 05:29:55;;;;;;;33.53;17.88;;;;;;;4.37;100.00;103908.75;5020086;28;20045;-79
2022/03/19 05:32:21;;;;;;;30.88;17.10;;;;;;;4.31;100.00;103915.13;5036840;28;20064;-79
2022/03/19 05:34:48;;;;;;;32.85;17.30;;;;;;;4.36;100.00;103912.38;5039895;28;20045;-79
2022/03/19 05:37:14;;;;;;;36.70;17.52;;;;;;;4.38;100.00;103910.56;5033117;28;20777;-79
2022/03/19 05:39:40;;;;;;;32.50;17.80;;;;;;;4.39;100.00;103913.28;5051001;28;20037;-79
2022/03/19 05:42:07;;;;;;;39.28;17.55;;;;;;;4.38;100.00;103916.00;5014519;28;20041;-79
2022/03/19 05:44:33;;;;;;;32.50;16.25;;;;;;;4.48;100.00;103922.31;5027971;28;20083;-79
2022/03/19 05:46:59;;;;;;;34.30;16.60;;;;;;;4.50;100.00;103920.47;5035646;28;20472;-78
2022/03/19 05:49:26;;;;;;;33.83;17.08;;;;;;;4.47;100.00;103918.66;5039217;28;20041;-78
2022/03/19 05:51:51;;;;;;;38.97;16.88;;;;;;;4.55;100.00;103924.97;5036663;28;20132;-78
2022/03/19 05:54:17;;;;;;;38.33;18.13;;;;;;;4.46;100.00;103929.50;5039690;28;20064;-78
2022/03/19 05:56:43;;;;;;;39.10;17.58;;;;;;;4.49;100.00;103918.66;5036314;28;20059;-77
2022/03/19 05:59:08;;;;;;;30.52;17.38;;;;;;;4.42;100.00;103923.22;5039808;28;20033;-77
2022/03/19 06:01:35;;;;;;;29.52;17.80;;;;;;;4.39;100.00;103926.84;5035902;28;20029;-78
2022/03/19 06:04:00;;;;;;;34.25;18.73;;;;;;;4.38;100.00;103926.84;5034343;28;20038;-78
2022/03/19 06:06:26;;;;;;;37.40;17.65;;;;;;;4.47;100.00;103926.81;5027278;28;20029;-78
2022/03/19 06:08:54;;;;;;;35.78;16.00;;;;;;;4.55;100.00;103934.91;5038813;28;20069;-78
2022/03/19 06:11:20;;;;;;;34.13;17.70;;;;;;;4.59;100.00;103939.41;5046581;28;20112;-78
2022/03/19 06:13:45;;;;;;;37.17;17.92;;;;;;;4.61;100.00;103929.47;5036058;28;20080;-78
2022/03/19 06:16:12;;;;;;;34.05;18.40;;;;;;;4.72;100.00;103941.19;5027712;28;20091;-81
2022/03/19 06:18:38;;;;;;;41.25;18.33;;;;;;;4.72;100.00;103935.75;5035961;28;20053;-79
2022/03/19 06:21:04;;;;;;;38.08;17.55;;;;;;;4.81;100.00;103937.53;5036420;28;20070;-76
2022/03/19 06:23:30;;;;;;;38.65;17.00;;;;;;;4.86;100.00;103949.25;5030032;28;20036;-77
2022/03/19 06:25:55;;;;;;;41.78;18.83;;;;;;;4.88;100.00;103942.00;5013685;28;20052;-78
2022/03/19 06:28:21;;;;;;;40.55;18.52;;;;;;;4.85;100.00;103939.28;5018754;28;20074;-78
2022/03/19 06:30:46;;;;;;;44.38;18.50;;;;;;;4.89;100.00;103938.38;5037530;28;20060;-78
2022/03/19 06:33:12;;;;;;;43.97;18.52;;;;;;;4.96;100.00;103945.56;5037920;28;20040;-78
2022/03/19 06:38:28;;;;;;;38.70;18.05;;;;;;;5.24;100.00;103934.53;5036987;28;20037;-79
2022/03/19 06:40:53;;;;;;;34.08;17.95;;;;;;;5.52;100.00;103939.78;5035569;28;20037;-79
2022/03/19 06:43:19;;;;;;;37.03;17.60;;;;;;;5.67;100.00;103949.63;5032197;28;20391;-80
2022/03/19 06:45:45;;;;;;;51.58;16.90;;;;;;;5.68;100.00;103949.59;5033672;28;20072;-78
2022/03/19 06:48:10;;;;;;;34.33;17.42;;;;;;;5.80;100.00;103942.25;5039850;28;20833;-79
2022/03/19 06:50:36;;;;;;;35.08;16.55;;;;;;;5.91;100.00;103940.34;4999437;28;20374;-80
2022/03/19 06:53:02;;;;;;;36.40;16.52;;;;;;;6.00;100.00;103931.22;5030049;28;20469;-79
2022/03/19 06:55:27;;;;;;;35.42;16.25;;;;;;;6.09;100.00;103938.41;5028700;28;20519;-78
2022/03/19 06:57:53;;;;;;;34.75;16.08;;;;;;;6.23;100.00;103937.34;5017853;28;20046;-79
2022/03/19 07:00:19;;;;;;;33.95;15.73;;;;;;;6.35;100.00;103928.13;5054122;28;20029;-77
2022/03/19 07:02:50;;;;;;;37.10;15.70;;;;;;;6.57;100.00;103939.63;5019372;28;20029;-79
2022/03/19 07:05:20;;;;;;;30.75;14.68;;;;;;;6.63;100.00;103933.22;5033008;28;20476;-78
2022/03/19 07:07:47;;;;;;;25.98;14.45;;;;;;;6.87;100.00;103936.53;5029665;28;20047;-78
2022/03/19 07:10:13;;;;;;;32.22;14.27;;;;;;;6.90;100.00;103931.06;5023847;28;20393;-79
2022/03/19 07:12:43;;;;;;;29.25;14.80;;;;;;;7.02;100.00;103936.34;5028674;28;20372;-77
2022/03/19 07:15:12;;;;;;;35.50;14.75;;;;;;;7.10;100.00;103947.09;5033880;28;20049;-77
2022/03/19 07:17:38;;;;;;;29.05;13.95;;;;;;;7.14;100.00;103944.31;5042664;28;20389;-79
2022/03/19 07:20:04;;;;;;;32.65;13.40;;;;;;;7.22;100.00;103938.78;5032137;28;20045;-77
2022/03/19 07:22:45;;;;;;;25.52;12.55;;;;;;;7.27;100.00;103938.69;5036196;28;20468;-77
2022/03/19 07:25:11;;;;;;;23.67;12.73;;;;;;;7.30;100.00;103944.13;5031818;28;20400;-77
2022/03/19 07:27:36;;;;;;;32.28;13.40;;;;;;;7.41;100.00;103935.75;5032412;28;20029;-76
2022/03/19 07:30:02;;;;;;;21.85;11.82;;;;;;;7.57;100.00;103936.41;5038463;28;20780;-76
2022/03/19 07:32:28;;;;;;;30.52;11.27;;;;;;;7.71;100.00;103934.34;5034488;28;20033;-77
2022/03/19 07:34:54;;;;;;;33.80;13.23;;;;;;;7.63;100.00;103933.59;5040675;28;20068;-75
2022/03/19 07:37:19;;;;;;;34.10;12.50;;;;;;;7.64;100.00;103938.09;5033394;28;20049;-77
2022/03/19 07:39:45;;;;;;;26.10;11.65;;;;;;;7.83;100.00;103942.31;5030513;28;20539;-77
2022/03/19 07:42:10;;;;;;;28.73;11.68;;;;;;;7.84;100.00;103926.88;5034277;28;20029;-79
2022/03/19 07:44:36;;;;;;;24.30;11.65;;;;;;;7.82;100.00;103937.81;5039667;28;20032;-78
2022/03/19 07:47:01;;;;;;;25.20;11.35;;;;;;;7.98;100.00;103923.88;5036318;28;20052;-79
2022/03/19 07:49:27;;;;;;;23.52;11.57;;;;;;;8.04;100.00;103930.09;5036480;28;20036;-80
2022/03/19 07:51:55;;;;;;;28.17;12.10;;;;;;;8.29;100.00;103940.56;5030574;28;20037;-78
2022/03/19 07:54:27;;;;;;;23.92;11.43;;;;;;;8.49;100.00;103936.56;5032000;28;20423;-80
2022/03/19 07:56:54;;;;;;;26.27;11.43;;;;;;;8.78;100.00;103939.56;5046138;28;20041;-80
2022/03/19 07:59:21;;;;;;;26.98;10.35;;;;;;;8.86;100.00;103930.31;5031820;28;20484;-79
2022/03/19 08:01:48;;;;;;;25.25;10.57;;;;;;;8.95;100.00;103936.47;5034757;28;20029;-78
2022/03/19 08:04:17;;;;;;;27.25;10.30;;;;;;;9.08;100.00;103926.16;5027620;28;20029;-78
2022/03/19 08:06:43;;;;;;;29.08;10.55;;;;;;;9.21;100.00;103937.69;5024452;28;20026;-78
2022/03/19 08:09:10;;;;;;;24.65;10.15;;;;;;;9.17;100.00;103930.50;5033921;28;20092;-79
2022/03/19 08:11:36;;;;;;;20.35;11.25;;;;;;;9.66;100.00;103933.88;5032125;28;20496;-79
2022/03/19 08:14:03;;;;;;;26.00;11.00;;;;;;;9.77;100.00;103939.06;5029169;28;20064;-79
2022/03/19 08:16:30;;;;;;;24.48;9.43;;;;;;;9.81;100.00;103935.34;5007275;28;20050;-78
2022/03/19 08:18:58;;;;;;;20.25;9.05;;;;;;;10.06;100.00;103938.28;5039171;28;20033;-79
2022/03/19 08:21:23;;;;;;;22.58;8.68;;;;;;;9.98;100.00;103924.81;5022858;28;20678;-78
2022/03/19 08:23:48;;;;;;;20.55;9.02;;;;;;;10.11;100.00;103931.75;5020662;28;20054;-78
2022/03/19 08:26:14;;;;;;;18.13;7.97;;;;;;;10.34;100.00;103922.03;5018346;28;20029;-77
2022/03/19 08:28:40;;;;;;;22.55;9.20;;;;;;;10.49;100.00;103926.16;5027594;28;20574;-77
2022/03/19 08:31:05;;;;;;;19.70;8.95;;;;;;;10.96;100.00;103920.19;5029484;28;20049;-77
2022/03/19 08:33:31;;;;;;;17.30;8.75;;;;;;;11.29;100.00;103923.69;5025198;28;20046;-77
2022/03/19 08:35:57;;;;;;;17.20;7.75;;;;;;;11.36;100.00;103927.13;5028270;28;20076;-77
2022/03/19 08:41:06;;;;;;;26.05;8.40;;;;;;;11.42;98.34;103924.19;5054446;28;20119;-77
2022/03/19 08:43:31;;;;;;;17.38;7.57;;;;;;;11.41;99.85;103911.41;5034022;28;20464;-78
2022/03/19 08:45:57;;;;;;;22.60;8.25;;;;;;;11.81;96.56;103922.91;5036056;28;20092;-77
2022/03/19 08:48:22;;;;;;;24.17;8.70;;;;;;;11.95;95.88;103918.75;5029833;28;20400;-78
2022/03/19 08:50:48;;;;;;;18.15;7.55;;;;;;;11.77;95.41;103923.00;5020785;28;20128;-79
2022/03/19 08:53:15;;;;;;;22.08;6.55;;;;;;;12.00;93.24;103915.81;5015465;28;20030;-79
2022/03/19 08:55:41;;;;;;;15.68;7.28;;;;;;;12.12;92.14;103922.72;5062661;28;20041;-78
2022/03/19 08:58:07;;;;;;;25.75;7.35;;;;;;;12.21;91.62;103914.13;5028350;28;20079;-77
2022/03/19 09:00:32;;;;;;;16.25;7.20;;;;;;;12.53;92.87;103913.88;5035959;28;20383;-78
2022/03/19 09:02:58;;;;;;;22.95;7.85;;;;;;;12.90;89.78;103915.22;5036635;28;20045;-78
2022/03/19 09:05:27;;;;;;;18.10;7.40;;;;;;;12.93;88.55;103915.09;5033712;28;20025;-78
2022/03/19 09:07:52;;;;;;;19.67;6.80;;;;;;;12.86;89.40;103909.81;5034721;28;20032;-78
2022/03/19 09:10:18;;;;;;;17.13;7.35;;;;;;;12.81;86.83;103911.88;5035604;28;20100;-78
2022/03/19 09:12:44;;;;;;;13.93;6.40;;;;;;;12.82;88.32;103899.91;5018548;28;20072;-78
2022/03/19 09:15:11;;;;;;;21.42;6.13;;;;;;;12.97;86.87;103905.72;5037496;28;20041;-78
2022/03/19 09:17:37;;;;;;;15.82;6.65;;;;;;;12.88;87.04;103907.00;5017540;28;20085;-78
2022/03/19 09:20:03;;;;;;;19.17;6.88;;;;;;;12.91;84.76;103901.41;5033415;28;20037;-78
2022/03/19 09:22:32;;;;;;;18.67;6.47;;;;;;;12.79;85.55;103904.63;5018727;28;20045;-77
2022/03/19 09:24:58;;;;;;;18.25;6.38;;;;;;;12.88;87.06;103898.75;5034116;28;20478;-77
2022/03/19 09:27:24;;;;;;;16.15;6.28;;;;;;;12.80;87.08;103904.56;5033462;28;20030;-78
2022/03/19 09:29:49;;;;;;;14.02;6.25;;;;;;;13.31;85.16;103908.00;5058621;28;20369;-77
2022/03/19 09:32:19;;;;;;;15.13;6.72;;;;;;;13.13;84.74;103901.41;5031469;28;20057;-77
2022/03/19 09:34:48;;;;;;;17.00;6.38;;;;;;;13.22;84.06;103903.78;5034207;28;20026;-77
2022/03/19 09:37:15;;;;;;;18.27;6.25;;;;;;;13.13;83.03;103890.41;5027645;28;20040;-78
2022/03/19 09:39:40;;;;;;;24.33;6.85;;;;;;;13.31;83.51;103898.88;5010691;28;20036;-78
2022/03/19 09:42:11;;;;;;;18.40;6.15;;;;;;;13.33;82.57;103891.47;5048208;28;20049;-78
2022/03/19 09:44:36;;;;;;;16.50;6.38;;;;;;;13.45;82.20;103882.69;5023126;28;20040;-77
2022/03/19 09:47:03;;;;;;;19.33;5.93;;;;;;;13.65;82.03;103878.19;5032977;28;20037;-78
2022/03/19 09:49:28;;;;;;;15.23;6.18;;;;;;;13.47;80.32;103883.53;5029197;28;20507;-77
2022/03/19 09:51:54;;;;;;;17.15;5.53;;;;;;;13.57;80.94;103882.16;5027842;28;20068;-77
2022/03/19 09:54:24;;;;;;;21.40;6.22;;;;;;;13.88;79.77;103878.06;5033099;28;20045;-77
2022/03/19 09:56:51;;;;;;;16.55;5.72;;;;;;;13.86;79.76;103871.75;5033671;28;20026;-78
2022/03/19 09:59:17;;;;;;;15.93;6.60;;;;;;;13.98;78.78;103862.91;5022690;28;20388;-77
2022/03/19 10:01:45;;;;;;;16.23;5.38;;;;;;;14.38;76.36;103854.69;5026400;28;20033;-77
2022/03/19 10:04:12;;;;;;;19.00;5.85;;;;;;;14.41;77.30;103846.25;5024911;28;20397;-77
2022/03/19 10:09:42;;;;;;;17.15;5.20;;;;;;;14.19;76.00;103838.09;5029718;28;20152;-78
2022/03/19 10:12:21;;;;;;;10.50;5.30;;;;;;;14.60;72.08;103838.03;5016298;28;20057;-77
2022/03/19 10:14:56;;;;;;;16.83;5.30;;;;;;;14.68;70.35;103823.88;5030849;28;20034;-77
2022/03/19 10:17:29;;;;;;;19.00;4.60;;;;;;;14.68;68.40;103821.13;5031470;28;20034;-77
2022/03/19 10:19:59;;;;;;;18.60;3.85;;;;;;;14.77;64.63;103809.59;5020434;28;20060;-77
2022/03/19 10:22:25;;;;;;;8.75;3.58;;;;;;;14.26;63.10;103812.03;5033779;28;20025;-77
2022/03/19 10:25:07;;;;;;;14.75;3.85;;;;;;;14.32;61.47;103810.88;5026676;28;20061;-77
2022/03/19 10:27:39;;;;;;;13.48;3.97;;;;;;;14.37;60.02;103810.66;5018236;28;20559;-77
2022/03/19 10:30:10;;;;;;;6.80;3.30;;;;;;;14.39;61.49;103795.81;5030079;28;20085;-77
2022/03/19 10:32:39;;;;;;;13.43;3.65;;;;;;;14.34;58.18;103798.78;5025373;28;20037;-77
2022/03/19 10:35:05;;;;;;;9.10;3.42;;;;;;;14.63;58.21;103792.88;5023828;28;20044;-78
2022/03/19 10:37:34;;;;;;;9.45;3.80;;;;;;;14.70;58.37;103788.84;5035457;28;20037;-78
2022/03/19 10:40:01;;;;;;;9.57;3.55;;;;;;;15.01;59.76;103792.81;5016027;28;20065;-78
2022/03/19 10:42:35;;;;;;;8.70;3.58;;;;;;;15.13;58.07;103785.78;5053245;28;20392;-78
2022/03/19 10:45:00;;;;;;;9.82;3.38;;;;;;;14.88;52.37;103782.38;5063907;28;20021;-78
2022/03/19 10:47:26;;;;;;;13.55;3.22;;;;;;;14.54;53.94;103772.09;5027133;28;20044;-77
2022/03/19 10:49:59;;;;;;;12.63;3.13;;;;;;;14.39;49.25;103771.00;5027362;28;20623;-78
2022/03/19 10:52:26;;;;;;;9.93;2.97;;;;;;;14.62;50.72;103769.91;5042707;28;20463;-77
2022/03/19 10:54:53;;;;;;;7.32;2.90;;;;;;;14.48;51.01;103778.84;5013490;28;20036;-77
2022/03/19 10:57:19;;;;;;;8.98;3.13;;;;;;;14.27;51.23;103761.47;5014453;28;20044;-77
2022/03/19 10:59:44;;;;;;;4.18;2.50;;;;;;;14.31;51.28;103768.63;5031823;28;20120;-77
2022/03/19 11:02:15;;;;;;;11.57;3.05;;;;;;;14.56;49.01;103758.25;5029823;28;20091;-77
2022/03/19 11:04:42;;;;;;;8.75;3.55;;;;;;;14.46;51.55;103760.56;5027906;28;20079;-77
2022/03/19 11:07:10;;;;;;;9.40;2.95;;;;;;;14.69;48.93;103735.53;5025670;28;20116;-77
2022/03/19 11:09:38;;;;;;;8.65;2.53;;;;;;;14.48;47.55;103745.75;5032810;28;20033;-77
2022/03/19 11:12:07;;;;;;;16.45;3.53;;;;;;;14.71;47.40;103746.50;5013083;28;20037;-77
2022/03/19 11:14:36;;;;;;;7.15;3.00;;;;;;;14.79;44.81;103733.22;5027940;28;20037;-77
2022/03/19 11:17:27;;;;;;;10.90;3.22;;;;;;;14.44;44.60;103737.69;5014619;28;20030;-77
2022/03/19 11:19:55;;;;;;;5.97;2.65;;;;;;;14.74;45.89;103731.66;5028443;28;20060;-78
2022/03/19 11:22:21;;;;;;;6.18;2.60;;;;;;;14.25;43.57;103730.34;5035755;28;20041;-77
2022/03/19 11:24:53;;;;;;;8.88;2.70;;;;;;;14.44;43.77;103712.88;5034812;28;20361;-78
2022/03/19 11:27:20;;;;;;;7.03;2.37;;;;;;;14.16;43.94;103719.75;5037398;28;20030;-77